05:02
Airports
Links
Donate
Help keep this website running!
PayPal
Bitcoin
METAR
LPPR 210430Z 17005KT 4000 BR OVC002 11/11 Q1032
Current Weather Conditions at LPPR
LIFR 04:30:00 21-01-18
Altimeter:30.47 hg
Temp:11.0°c 52°f
Dew point:11.0°c 52°f
Wind:5 knots, 5.8 mph, 3 m/s, from 170°
Visibility:2.49 statute miles
200(OVC) Overcast
Past METAR reports
LIFR 04:00:00 21-01-18
Altimeter:30.47 hg
Temp:11.0°c 52°f
Dew point:11.0°c 52°f
Wind:5 knots, 5.8 mph, 3 m/s, from 160°
Visibility:2.17 statute miles
200(OVC) Overcast
LPPR 210400Z 16005KT 3500 BR OVC002 11/11 Q1032
LIFR 03:30:00 21-01-18
Altimeter:30.47 hg
Temp:11.0°c 52°f
Dew point:11.0°c 52°f
Wind:5 knots, 5.8 mph, 3 m/s, from 160°
Visibility:2.17 statute miles
200(OVC) Overcast
LPPR 210330Z 16005KT 3500 BR OVC002 11/11 Q1032
LIFR 03:00:00 21-01-18
Altimeter:30.47 hg
Temp:11.0°c 52°f
Dew point:11.0°c 52°f
Wind:4 knots, 4.6 mph, 2 m/s, from 170°
Visibility:2.17 statute miles
300(OVC) Overcast
LPPR 210300Z 17004KT 3500 BR OVC003 11/11 Q1032
LIFR 02:30:00 21-01-18
Altimeter:30.47 hg
Temp:11.0°c 52°f
Dew point:11.0°c 52°f
Wind:6 knots, 6.9 mph, 3 m/s, from 150°
Visibility:2.49 statute miles
800(OVC) Overcast
400(BKN) Broken
200(SCT) Scattered
LPPR 210230Z 15006KT 4000 BR SCT002 BKN004 OVC008 11/11 Q1032
LIFR 02:00:00 21-01-18
Altimeter:30.47 hg
Temp:11.0°c 52°f
Dew point:11.0°c 52°f
Wind:3 knots, 3.5 mph, 2 m/s, from 140°
Visibility:2.49 statute miles
400(OVC) Overcast
LPPR 210200Z 14003KT 4000 BR OVC004 11/11 Q1032
IFR 01:30:00 21-01-18
Altimeter:30.47 hg
Temp:11.0°c 52°f
Dew point:11.0°c 52°f
Wind:4 knots, 4.6 mph, 2 m/s, from 140°
Visibility:2.49 statute miles
2500(OVC) Overcast
500(BKN) Broken
LPPR 210130Z 14004KT 4000 BR BKN005 OVC025 11/11 Q1032
TAF
TAF LPPR 202300Z 2100/2124 16005KT 5000 BR SCT002 BKN004 TEMPO 2100/2109 VRB03KT 1500 DZ BR SCT000 BKN002 PROB30 2100/2109 0100 FG VV001 BECMG 2110/2112 VRB03KT 6000 NSW SCT008 BKN015 BECMG 2116/2119 3000 BR SCT002 BKN004 TEMPO 2120/2124 0200 FG VV001
Forecast at LPPR
00:00 21-01-18 to 10:00 21-01-18
BR
Wind:5 Knots from 160°
Visibility:3.11 statute miles
200SCT Scattered
400BKN Broken
TEMPO 00:00 21-01-18 to 09:00 21-01-18
DZ BR
Wind:3 Knots from 360°
Visibility:0.93 statute miles
SCT Scattered
200BKN Broken
PROB 00:00 21-01-18 to 09:00 21-01-18
30% FG
Visibility:0.06 statute miles
OVX
BECMG 10:00 21-01-18 to 16:00 21-01-18
NSW
Wind:3 Knots from 360°
Visibility:3.73 statute miles
800SCT Scattered
1500BKN Broken
BECMG 16:00 21-01-18 to 00:00 22-01-18
BR
Wind:3 Knots from 360°
Visibility:1.86 statute miles
200SCT Scattered
400BKN Broken
TEMPO 20:00 21-01-18 to 00:00 22-01-18
FG
Visibility:0.12 statute miles
OVX